sensor_id;sensor_type;location;lat;lon;timestamp;P1;durP1;ratioP1;P2;durP2;ratioP2
66256;SDS011;53049;43.446;3.698;2023-07-20T00:01:28;10.55;;;3.38;;
66256;SDS011;53049;43.446;3.698;2023-07-20T00:03:54;7.30;;;2.40;;
66256;SDS011;53049;43.446;3.698;2023-07-20T00:06:23;6.32;;;2.75;;
66256;SDS011;53049;43.446;3.698;2023-07-20T00:08:49;8.02;;;2.50;;
66256;SDS011;53049;43.446;3.698;2023-07-20T00:11:15;4.25;;;2.17;;
66256;SDS011;53049;43.446;3.698;2023-07-20T00:13:41;5.05;;;2.35;;
66256;SDS011;53049;43.446;3.698;2023-07-20T00:16:07;7.47;;;2.25;;
66256;SDS011;53049;43.446;3.698;2023-07-20T00:18:33;5.07;;;2.38;;
66256;SDS011;53049;43.446;3.698;2023-07-20T00:20:58;3.53;;;2.20;;
66256;SDS011;53049;43.446;3.698;2023-07-20T00:23:27;4.32;;;1.90;;
66256;SDS011;53049;43.446;3.698;2023-07-20T00:25:53;6.20;;;2.42;;
66256;SDS011;53049;43.446;3.698;2023-07-20T00:28:19;5.32;;;2.13;;
66256;SDS011;53049;43.446;3.698;2023-07-20T00:30:45;7.13;;;2.22;;
66256;SDS011;53049;43.446;3.698;2023-07-20T00:33:11;3.90;;;2.38;;
66256;SDS011;53049;43.446;3.698;2023-07-20T00:35:37;4.50;;;2.20;;
66256;SDS011;53049;43.446;3.698;2023-07-20T00:38:03;5.03;;;2.05;;
66256;SDS011;53049;43.446;3.698;2023-07-20T00:40:39;6.82;;;2.28;;
66256;SDS011;53049;43.446;3.698;2023-07-20T00:43:05;4.22;;;2.00;;
66256;SDS011;53049;43.446;3.698;2023-07-20T00:45:32;4.40;;;2.05;;
66256;SDS011;53049;43.446;3.698;2023-07-20T00:47:59;6.75;;;2.22;;
66256;SDS011;53049;43.446;3.698;2023-07-20T00:50:26;6.72;;;2.00;;
66256;SDS011;53049;43.446;3.698;2023-07-20T00:52:54;4.30;;;2.20;;
66256;SDS011;53049;43.446;3.698;2023-07-20T00:55:21;4.55;;;2.30;;
66256;SDS011;53049;43.446;3.698;2023-07-20T00:57:49;5.85;;;2.40;;
66256;SDS011;53049;43.446;3.698;2023-07-20T01:00:15;6.05;;;2.65;;
66256;SDS011;53049;43.446;3.698;2023-07-20T01:02:41;7.00;;;2.50;;
66256;SDS011;53049;43.446;3.698;2023-07-20T01:05:07;4.55;;;2.03;;
66256;SDS011;53049;43.446;3.698;2023-07-20T01:07:38;6.60;;;2.22;;
66256;SDS011;53049;43.446;3.698;2023-07-20T01:10:24;5.47;;;2.30;;
66256;SDS011;53049;43.446;3.698;2023-07-20T01:12:56;4.93;;;2.08;;
66256;SDS011;53049;43.446;3.698;2023-07-20T01:15:23;4.82;;;2.38;;
66256;SDS011;53049;43.446;3.698;2023-07-20T01:17:49;4.45;;;2.28;;
66256;SDS011;53049;43.446;3.698;2023-07-20T01:20:15;3.92;;;2.20;;
66256;SDS011;53049;43.446;3.698;2023-07-20T01:34:00;5.80;;;1.98;;
66256;SDS011;53049;43.446;3.698;2023-07-20T01:36:28;6.07;;;2.15;;
66256;SDS011;53049;43.446;3.698;2023-07-20T01:38:55;4.88;;;2.08;;
66256;SDS011;53049;43.446;3.698;2023-07-20T01:41:21;4.43;;;2.55;;
66256;SDS011;53049;43.446;3.698;2023-07-20T01:43:48;3.70;;;2.13;;
66256;SDS011;53049;43.446;3.698;2023-07-20T01:46:13;4.53;;;2.17;;
66256;SDS011;53049;43.446;3.698;2023-07-20T01:48:39;5.68;;;2.22;;
66256;SDS011;53049;43.446;3.698;2023-07-20T01:51:05;5.57;;;2.20;;
66256;SDS011;53049;43.446;3.698;2023-07-20T01:53:30;4.63;;;2.20;;
66256;SDS011;53049;43.446;3.698;2023-07-20T01:55:56;5.45;;;2.30;;
66256;SDS011;53049;43.446;3.698;2023-07-20T01:58:22;5.88;;;2.20;;
66256;SDS011;53049;43.446;3.698;2023-07-20T02:00:48;4.78;;;2.05;;
66256;SDS011;53049;43.446;3.698;2023-07-20T02:03:14;5.13;;;2.40;;
66256;SDS011;53049;43.446;3.698;2023-07-20T02:05:42;3.58;;;1.85;;
66256;SDS011;53049;43.446;3.698;2023-07-20T02:08:08;3.92;;;1.95;;
66256;SDS011;53049;43.446;3.698;2023-07-20T02:10:34;4.30;;;2.20;;
66256;SDS011;53049;43.446;3.698;2023-07-20T02:13:00;4.00;;;2.00;;
66256;SDS011;53049;43.446;3.698;2023-07-20T02:15:26;3.78;;;2.08;;
66256;SDS011;53049;43.446;3.698;2023-07-20T02:17:52;3.95;;;2.20;;
66256;SDS011;53049;43.446;3.698;2023-07-20T02:20:18;6.13;;;2.28;;
66256;SDS011;53049;43.446;3.698;2023-07-20T02:22:44;5.75;;;2.30;;
66256;SDS011;53049;43.446;3.698;2023-07-20T02:25:10;4.03;;;2.33;;
66256;SDS011;53049;43.446;3.698;2023-07-20T02:27:36;2.45;;;2.00;;
66256;SDS011;53049;43.446;3.698;2023-07-20T02:30:03;4.68;;;2.20;;
66256;SDS011;53049;43.446;3.698;2023-07-20T02:32:29;4.90;;;2.47;;
66256;SDS011;53049;43.446;3.698;2023-07-20T02:34:56;5.85;;;2.25;;
66256;SDS011;53049;43.446;3.698;2023-07-20T02:37:22;4.53;;;2.25;;
66256;SDS011;53049;43.446;3.698;2023-07-20T02:39:48;4.03;;;2.00;;
66256;SDS011;53049;43.446;3.698;2023-07-20T02:42:13;4.93;;;2.20;;
66256;SDS011;53049;43.446;3.698;2023-07-20T02:44:39;4.53;;;2.00;;
66256;SDS011;53049;43.446;3.698;2023-07-20T02:47:05;5.30;;;2.15;;
66256;SDS011;53049;43.446;3.698;2023-07-20T02:49:31;4.18;;;2.40;;
66256;SDS011;53049;43.446;3.698;2023-07-20T02:51:56;3.97;;;2.20;;
66256;SDS011;53049;43.446;3.698;2023-07-20T02:54:22;6.38;;;2.22;;
66256;SDS011;53049;43.446;3.698;2023-07-20T02:56:48;4.65;;;2.17;;
66256;SDS011;53049;43.446;3.698;2023-07-20T02:59:14;5.57;;;2.40;;
66256;SDS011;53049;43.446;3.698;2023-07-20T03:01:39;3.92;;;2.03;;
66256;SDS011;53049;43.446;3.698;2023-07-20T03:04:07;3.88;;;2.00;;
66256;SDS011;53049;43.446;3.698;2023-07-20T03:06:35;6.35;;;2.20;;
66256;SDS011;53049;43.446;3.698;2023-07-20T03:09:01;4.72;;;2.13;;
66256;SDS011;53049;43.446;3.698;2023-07-20T03:11:27;4.18;;;2.28;;
66256;SDS011;53049;43.446;3.698;2023-07-20T03:13:53;5.10;;;2.20;;
66256;SDS011;53049;43.446;3.698;2023-07-20T03:16:18;4.18;;;2.38;;
66256;SDS011;53049;43.446;3.698;2023-07-20T03:18:45;3.28;;;1.90;;
66256;SDS011;53049;43.446;3.698;2023-07-20T03:21:11;5.28;;;2.13;;
66256;SDS011;53049;43.446;3.698;2023-07-20T03:23:37;4.45;;;2.42;;
66256;SDS011;53049;43.446;3.698;2023-07-20T03:26:03;6.53;;;2.80;;
66256;SDS011;53049;43.446;3.698;2023-07-20T03:28:29;4.97;;;2.40;;
66256;SDS011;53049;43.446;3.698;2023-07-20T03:30:58;5.47;;;2.40;;
66256;SDS011;53049;43.446;3.698;2023-07-20T03:33:27;4.43;;;2.47;;
66256;SDS011;53049;43.446;3.698;2023-07-20T03:35:54;5.05;;;2.33;;
66256;SDS011;53049;43.446;3.698;2023-07-20T03:38:21;6.20;;;2.75;;
66256;SDS011;53049;43.446;3.698;2023-07-20T03:43:20;4.60;;;2.30;;
66256;SDS011;53049;43.446;3.698;2023-07-20T03:45:49;4.40;;;2.42;;
66256;SDS011;53049;43.446;3.698;2023-07-20T03:48:16;4.75;;;2.30;;
66256;SDS011;53049;43.446;3.698;2023-07-20T03:50:49;5.85;;;2.38;;
66256;SDS011;53049;43.446;3.698;2023-07-20T03:53:16;8.02;;;2.30;;
66256;SDS011;53049;43.446;3.698;2023-07-20T03:55:48;6.57;;;2.42;;
66256;SDS011;53049;43.446;3.698;2023-07-20T03:58:16;4.68;;;2.10;;
66256;SDS011;53049;43.446;3.698;2023-07-20T04:00:46;4.25;;;2.33;;
66256;SDS011;53049;43.446;3.698;2023-07-20T04:03:14;5.72;;;2.47;;
66256;SDS011;53049;43.446;3.698;2023-07-20T04:05:40;5.40;;;2.50;;
66256;SDS011;53049;43.446;3.698;2023-07-20T04:08:05;5.53;;;2.30;;
66256;SDS011;53049;43.446;3.698;2023-07-20T04:10:31;5.25;;;2.22;;
66256;SDS011;53049;43.446;3.698;2023-07-20T04:12:57;4.70;;;2.50;;
66256;SDS011;53049;43.446;3.698;2023-07-20T04:15:22;6.57;;;2.35;;
66256;SDS011;53049;43.446;3.698;2023-07-20T04:17:48;5.85;;;2.60;;
66256;SDS011;53049;43.446;3.698;2023-07-20T04:20:14;6.00;;;2.47;;
66256;SDS011;53049;43.446;3.698;2023-07-20T04:22:39;5.43;;;2.35;;
66256;SDS011;53049;43.446;3.698;2023-07-20T04:25:05;5.70;;;2.90;;
66256;SDS011;53049;43.446;3.698;2023-07-20T04:27:31;6.68;;;2.70;;
66256;SDS011;53049;43.446;3.698;2023-07-20T04:30:00;7.93;;;2.70;;
66256;SDS011;53049;43.446;3.698;2023-07-20T04:32:27;9.27;;;3.28;;
66256;SDS011;53049;43.446;3.698;2023-07-20T04:34:52;16.73;;;3.88;;
66256;SDS011;53049;43.446;3.698;2023-07-20T04:37:18;11.07;;;3.13;;
66256;SDS011;53049;43.446;3.698;2023-07-20T04:39:44;6.43;;;2.67;;
66256;SDS011;53049;43.446;3.698;2023-07-20T04:42:09;5.22;;;2.70;;
66256;SDS011;53049;43.446;3.698;2023-07-20T04:44:35;7.88;;;2.70;;
66256;SDS011;53049;43.446;3.698;2023-07-20T04:47:01;7.22;;;2.40;;
66256;SDS011;53049;43.446;3.698;2023-07-20T04:49:27;6.78;;;2.63;;
66256;SDS011;53049;43.446;3.698;2023-07-20T04:51:53;15.73;;;3.80;;
66256;SDS011;53049;43.446;3.698;2023-07-20T04:54:19;19.08;;;3.72;;
66256;SDS011;53049;43.446;3.698;2023-07-20T04:56:45;14.73;;;3.85;;
66256;SDS011;53049;43.446;3.698;2023-07-20T04:59:10;11.13;;;3.47;;
66256;SDS011;53049;43.446;3.698;2023-07-20T05:01:36;12.10;;;3.45;;
66256;SDS011;53049;43.446;3.698;2023-07-20T05:04:02;11.30;;;2.90;;
66256;SDS011;53049;43.446;3.698;2023-07-20T05:06:27;9.25;;;3.33;;
66256;SDS011;53049;43.446;3.698;2023-07-20T05:08:53;5.78;;;2.42;;
66256;SDS011;53049;43.446;3.698;2023-07-20T05:11:19;6.03;;;2.75;;
66256;SDS011;53049;43.446;3.698;2023-07-20T05:13:45;9.88;;;2.78;;
66256;SDS011;53049;43.446;3.698;2023-07-20T05:16:10;5.82;;;2.65;;
66256;SDS011;53049;43.446;3.698;2023-07-20T05:18:36;6.10;;;2.67;;
66256;SDS011;53049;43.446;3.698;2023-07-20T05:21:02;9.48;;;2.65;;
66256;SDS011;53049;43.446;3.698;2023-07-20T05:23:28;6.93;;;2.55;;
66256;SDS011;53049;43.446;3.698;2023-07-20T05:25:54;6.18;;;2.70;;
66256;SDS011;53049;43.446;3.698;2023-07-20T05:28:24;4.80;;;2.33;;
66256;SDS011;53049;43.446;3.698;2023-07-20T05:30:50;5.20;;;2.53;;
66256;SDS011;53049;43.446;3.698;2023-07-20T05:33:20;6.80;;;2.78;;
66256;SDS011;53049;43.446;3.698;2023-07-20T05:35:46;5.80;;;2.50;;
66256;SDS011;53049;43.446;3.698;2023-07-20T05:38:12;6.30;;;2.33;;
66256;SDS011;53049;43.446;3.698;2023-07-20T05:40:39;7.53;;;2.47;;
66256;SDS011;53049;43.446;3.698;2023-07-20T05:43:06;7.05;;;2.97;;
66256;SDS011;53049;43.446;3.698;2023-07-20T05:45:32;6.05;;;2.60;;
66256;SDS011;53049;43.446;3.698;2023-07-20T05:47:58;8.15;;;2.90;;
66256;SDS011;53049;43.446;3.698;2023-07-20T05:50:23;5.45;;;2.70;;
66256;SDS011;53049;43.446;3.698;2023-07-20T05:52:51;5.32;;;2.55;;
66256;SDS011;53049;43.446;3.698;2023-07-20T05:55:18;6.45;;;2.70;;
66256;SDS011;53049;43.446;3.698;2023-07-20T05:57:43;7.50;;;2.83;;
66256;SDS011;53049;43.446;3.698;2023-07-20T06:00:09;7.97;;;2.70;;
66256;SDS011;53049;43.446;3.698;2023-07-20T06:02:35;6.43;;;2.90;;
66256;SDS011;53049;43.446;3.698;2023-07-20T06:05:01;7.75;;;3.03;;
66256;SDS011;53049;43.446;3.698;2023-07-20T06:07:26;5.53;;;2.83;;
66256;SDS011;53049;43.446;3.698;2023-07-20T06:09:52;7.25;;;3.33;;
66256;SDS011;53049;43.446;3.698;2023-07-20T06:12:18;8.32;;;2.88;;
66256;SDS011;53049;43.446;3.698;2023-07-20T06:14:44;13.45;;;3.55;;
66256;SDS011;53049;43.446;3.698;2023-07-20T06:17:09;12.63;;;3.40;;
66256;SDS011;53049;43.446;3.698;2023-07-20T06:19:35;18.27;;;3.47;;
66256;SDS011;53049;43.446;3.698;2023-07-20T06:22:00;21.35;;;4.43;;
66256;SDS011;53049;43.446;3.698;2023-07-20T06:24:26;14.05;;;3.38;;
66256;SDS011;53049;43.446;3.698;2023-07-20T06:26:52;18.92;;;3.78;;
66256;SDS011;53049;43.446;3.698;2023-07-20T06:29:18;15.85;;;4.70;;
66256;SDS011;53049;43.446;3.698;2023-07-20T06:31:44;17.92;;;3.88;;
66256;SDS011;53049;43.446;3.698;2023-07-20T06:34:10;14.38;;;3.70;;
66256;SDS011;53049;43.446;3.698;2023-07-20T06:36:35;9.77;;;3.05;;
66256;SDS011;53049;43.446;3.698;2023-07-20T06:39:01;8.07;;;3.47;;
66256;SDS011;53049;43.446;3.698;2023-07-20T06:41:28;10.10;;;3.30;;
66256;SDS011;53049;43.446;3.698;2023-07-20T06:43:53;10.77;;;3.65;;
66256;SDS011;53049;43.446;3.698;2023-07-20T06:46:23;8.00;;;2.78;;
66256;SDS011;53049;43.446;3.698;2023-07-20T06:48:50;12.02;;;3.47;;
66256;SDS011;53049;43.446;3.698;2023-07-20T06:51:15;9.13;;;3.33;;
66256;SDS011;53049;43.446;3.698;2023-07-20T06:53:41;7.45;;;3.22;;
66256;SDS011;53049;43.446;3.698;2023-07-20T06:56:07;4.97;;;2.80;;
66256;SDS011;53049;43.446;3.698;2023-07-20T06:58:32;8.98;;;3.33;;
66256;SDS011;53049;43.446;3.698;2023-07-20T07:00:58;6.97;;;3.13;;
66256;SDS011;53049;43.446;3.698;2023-07-20T07:03:24;8.55;;;3.00;;
66256;SDS011;53049;43.446;3.698;2023-07-20T07:05:49;6.03;;;2.90;;
66256;SDS011;53049;43.446;3.698;2023-07-20T07:08:15;5.35;;;3.20;;
66256;SDS011;53049;43.446;3.698;2023-07-20T07:10:41;10.32;;;3.25;;
66256;SDS011;53049;43.446;3.698;2023-07-20T07:13:08;6.90;;;3.10;;
66256;SDS011;53049;43.446;3.698;2023-07-20T07:15:33;7.43;;;3.10;;
66256;SDS011;53049;43.446;3.698;2023-07-20T07:17:59;9.68;;;3.30;;
66256;SDS011;53049;43.446;3.698;2023-07-20T07:20:25;9.75;;;3.45;;
66256;SDS011;53049;43.446;3.698;2023-07-20T07:22:51;10.25;;;3.70;;
66256;SDS011;53049;43.446;3.698;2023-07-20T07:25:17;6.65;;;3.13;;
66256;SDS011;53049;43.446;3.698;2023-07-20T07:27:43;7.07;;;3.47;;
66256;SDS011;53049;43.446;3.698;2023-07-20T07:30:09;6.35;;;2.97;;
66256;SDS011;53049;43.446;3.698;2023-07-20T07:32:35;8.50;;;3.05;;
66256;SDS011;53049;43.446;3.698;2023-07-20T07:35:00;6.95;;;2.72;;
66256;SDS011;53049;43.446;3.698;2023-07-20T07:37:26;8.05;;;3.00;;
66256;SDS011;53049;43.446;3.698;2023-07-20T07:39:52;8.15;;;3.50;;
66256;SDS011;53049;43.446;3.698;2023-07-20T07:42:17;8.43;;;3.13;;
66256;SDS011;53049;43.446;3.698;2023-07-20T07:44:43;11.65;;;3.40;;
66256;SDS011;53049;43.446;3.698;2023-07-20T07:47:09;7.75;;;3.03;;
66256;SDS011;53049;43.446;3.698;2023-07-20T07:49:35;6.07;;;3.10;;
66256;SDS011;53049;43.446;3.698;2023-07-20T07:52:01;7.75;;;3.13;;
66256;SDS011;53049;43.446;3.698;2023-07-20T07:54:29;5.32;;;3.00;;
66256;SDS011;53049;43.446;3.698;2023-07-20T07:56:55;5.05;;;3.10;;
66256;SDS011;53049;43.446;3.698;2023-07-20T07:59:21;6.88;;;3.10;;
66256;SDS011;53049;43.446;3.698;2023-07-20T08:01:47;8.00;;;3.28;;
66256;SDS011;53049;43.446;3.698;2023-07-20T08:04:13;5.32;;;3.10;;
66256;SDS011;53049;43.446;3.698;2023-07-20T08:06:39;8.40;;;3.13;;
66256;SDS011;53049;43.446;3.698;2023-07-20T08:09:05;8.32;;;3.38;;
66256;SDS011;53049;43.446;3.698;2023-07-20T08:11:30;6.55;;;3.50;;
66256;SDS011;53049;43.446;3.698;2023-07-20T08:13:59;8.02;;;2.88;;
66256;SDS011;53049;43.446;3.698;2023-07-20T08:16:25;10.05;;;2.97;;
66256;SDS011;53049;43.446;3.698;2023-07-20T08:18:51;5.82;;;3.05;;
66256;SDS011;53049;43.446;3.698;2023-07-20T08:21:17;7.68;;;3.17;;
66256;SDS011;53049;43.446;3.698;2023-07-20T08:23:42;6.25;;;2.78;;
66256;SDS011;53049;43.446;3.698;2023-07-20T08:26:08;8.18;;;3.00;;
66256;SDS011;53049;43.446;3.698;2023-07-20T08:28:34;5.88;;;2.90;;
66256;SDS011;53049;43.446;3.698;2023-07-20T08:31:00;5.15;;;3.15;;
66256;SDS011;53049;43.446;3.698;2023-07-20T08:33:25;6.07;;;2.90;;
66256;SDS011;53049;43.446;3.698;2023-07-20T08:35:54;5.70;;;3.00;;
66256;SDS011;53049;43.446;3.698;2023-07-20T08:38:21;6.18;;;3.03;;
66256;SDS011;53049;43.446;3.698;2023-07-20T08:40:47;5.03;;;2.72;;
66256;SDS011;53049;43.446;3.698;2023-07-20T08:43:13;6.53;;;3.22;;
66256;SDS011;53049;43.446;3.698;2023-07-20T08:45:43;4.50;;;3.00;;
66256;SDS011;53049;43.446;3.698;2023-07-20T08:48:10;7.50;;;2.92;;
66256;SDS011;53049;43.446;3.698;2023-07-20T08:50:37;5.38;;;2.45;;
66256;SDS011;53049;43.446;3.698;2023-07-20T08:53:04;10.65;;;3.30;;
66256;SDS011;53049;43.446;3.698;2023-07-20T08:55:30;10.10;;;3.20;;
66256;SDS011;53049;43.446;3.698;2023-07-20T08:57:59;5.45;;;2.75;;
66256;SDS011;53049;43.446;3.698;2023-07-20T09:00:27;5.65;;;3.08;;
66256;SDS011;53049;43.446;3.698;2023-07-20T09:02:54;7.30;;;4.03;;
66256;SDS011;53049;43.446;3.698;2023-07-20T09:05:21;6.95;;;3.13;;
66256;SDS011;53049;43.446;3.698;2023-07-20T09:07:48;7.05;;;2.97;;
66256;SDS011;53049;43.446;3.698;2023-07-20T09:10:14;6.85;;;2.70;;
66256;SDS011;53049;43.446;3.698;2023-07-20T09:12:40;4.85;;;2.70;;
66256;SDS011;53049;43.446;3.698;2023-07-20T09:15:07;5.43;;;2.80;;
66256;SDS011;53049;43.446;3.698;2023-07-20T09:17:35;7.53;;;3.35;;
66256;SDS011;53049;43.446;3.698;2023-07-20T09:20:04;5.05;;;3.15;;
66256;SDS011;53049;43.446;3.698;2023-07-20T09:22:40;9.52;;;3.38;;
66256;SDS011;53049;43.446;3.698;2023-07-20T09:25:17;9.27;;;3.20;;
66256;SDS011;53049;43.446;3.698;2023-07-20T09:27:47;11.73;;;3.42;;
66256;SDS011;53049;43.446;3.698;2023-07-20T09:30:14;8.23;;;3.50;;
66256;SDS011;53049;43.446;3.698;2023-07-20T09:32:45;7.75;;;3.45;;
66256;SDS011;53049;43.446;3.698;2023-07-20T09:35:18;6.80;;;3.25;;
66256;SDS011;53049;43.446;3.698;2023-07-20T09:37:54;7.97;;;3.17;;
66256;SDS011;53049;43.446;3.698;2023-07-20T09:40:22;11.50;;;3.30;;
66256;SDS011;53049;43.446;3.698;2023-07-20T09:42:49;7.50;;;3.30;;
66256;SDS011;53049;43.446;3.698;2023-07-20T09:45:18;7.22;;;3.38;;
66256;SDS011;53049;43.446;3.698;2023-07-20T09:47:44;6.30;;;3.53;;
66256;SDS011;53049;43.446;3.698;2023-07-20T09:50:10;8.43;;;3.22;;
66256;SDS011;53049;43.446;3.698;2023-07-20T09:52:39;10.07;;;3.20;;
66256;SDS011;53049;43.446;3.698;2023-07-20T09:55:06;8.85;;;3.15;;
66256;SDS011;53049;43.446;3.698;2023-07-20T09:57:33;8.43;;;3.42;;
66256;SDS011;53049;43.446;3.698;2023-07-20T10:00:04;8.38;;;3.88;;
66256;SDS011;53049;43.446;3.698;2023-07-20T10:02:45;13.20;;;4.03;;
66256;SDS011;53049;43.446;3.698;2023-07-20T10:05:14;9.85;;;3.00;;
66256;SDS011;53049;43.446;3.698;2023-07-20T10:07:48;6.13;;;3.10;;
66256;SDS011;53049;43.446;3.698;2023-07-20T10:10:16;6.00;;;3.00;;
66256;SDS011;53049;43.446;3.698;2023-07-20T10:12:47;9.70;;;3.45;;
66256;SDS011;53049;43.446;3.698;2023-07-20T10:17:58;8.57;;;3.15;;
66256;SDS011;53049;43.446;3.698;2023-07-20T10:20:28;7.68;;;3.28;;
66256;SDS011;53049;43.446;3.698;2023-07-20T10:22:56;5.93;;;3.25;;
66256;SDS011;53049;43.446;3.698;2023-07-20T10:25:23;6.88;;;2.97;;
66256;SDS011;53049;43.446;3.698;2023-07-20T10:27:49;7.88;;;3.42;;
66256;SDS011;53049;43.446;3.698;2023-07-20T10:30:15;9.55;;;3.50;;
66256;SDS011;53049;43.446;3.698;2023-07-20T10:32:43;7.20;;;3.80;;
66256;SDS011;53049;43.446;3.698;2023-07-20T10:35:16;5.95;;;3.33;;
66256;SDS011;53049;43.446;3.698;2023-07-20T10:45:36;6.47;;;3.55;;
66256;SDS011;53049;43.446;3.698;2023-07-20T10:48:12;7.78;;;3.45;;
66256;SDS011;53049;43.446;3.698;2023-07-20T10:50:42;6.07;;;3.28;;
66256;SDS011;53049;43.446;3.698;2023-07-20T10:53:15;7.95;;;3.25;;
66256;SDS011;53049;43.446;3.698;2023-07-20T10:55:42;8.20;;;3.60;;
66256;SDS011;53049;43.446;3.698;2023-07-20T10:58:12;7.55;;;3.20;;
66256;SDS011;53049;43.446;3.698;2023-07-20T11:00:57;6.05;;;3.20;;
66256;SDS011;53049;43.446;3.698;2023-07-20T11:03:31;6.18;;;3.50;;
66256;SDS011;53049;43.446;3.698;2023-07-20T11:05:58;6.13;;;3.60;;
66256;SDS011;53049;43.446;3.698;2023-07-20T11:08:41;6.88;;;3.28;;
66256;SDS011;53049;43.446;3.698;2023-07-20T11:11:27;7.43;;;3.22;;
66256;SDS011;53049;43.446;3.698;2023-07-20T11:14:00;9.07;;;3.92;;
66256;SDS011;53049;43.446;3.698;2023-07-20T11:16:34;8.63;;;3.10;;
66256;SDS011;53049;43.446;3.698;2023-07-20T11:19:19;8.98;;;3.60;;
66256;SDS011;53049;43.446;3.698;2023-07-20T11:21:46;9.18;;;3.55;;
66256;SDS011;53049;43.446;3.698;2023-07-20T11:24:15;7.05;;;3.00;;
66256;SDS011;53049;43.446;3.698;2023-07-20T11:26:44;10.68;;;3.22;;
66256;SDS011;53049;43.446;3.698;2023-07-20T11:29:15;6.78;;;3.13;;
66256;SDS011;53049;43.446;3.698;2023-07-20T11:31:42;7.18;;;3.20;;
66256;SDS011;53049;43.446;3.698;2023-07-20T11:34:13;8.80;;;3.20;;
66256;SDS011;53049;43.446;3.698;2023-07-20T11:36:43;7.20;;;3.67;;
66256;SDS011;53049;43.446;3.698;2023-07-20T11:39:11;6.93;;;4.10;;
66256;SDS011;53049;43.446;3.698;2023-07-20T11:41:38;5.60;;;3.30;;
66256;SDS011;53049;43.446;3.698;2023-07-20T11:44:09;6.47;;;3.60;;
66256;SDS011;53049;43.446;3.698;2023-07-20T11:46:38;6.32;;;3.38;;
66256;SDS011;53049;43.446;3.698;2023-07-20T11:49:05;5.90;;;3.08;;
66256;SDS011;53049;43.446;3.698;2023-07-20T11:51:31;10.90;;;3.40;;
66256;SDS011;53049;43.446;3.698;2023-07-20T11:53:57;6.60;;;3.28;;
66256;SDS011;53049;43.446;3.698;2023-07-20T11:56:26;6.57;;;3.42;;
66256;SDS011;53049;43.446;3.698;2023-07-20T11:58:55;7.63;;;3.22;;
66256;SDS011;53049;43.446;3.698;2023-07-20T12:01:26;6.72;;;3.40;;
66256;SDS011;53049;43.446;3.698;2023-07-20T12:04:00;8.50;;;3.45;;
66256;SDS011;53049;43.446;3.698;2023-07-20T12:06:28;6.75;;;3.53;;
66256;SDS011;53049;43.446;3.698;2023-07-20T12:08:55;7.18;;;3.63;;
66256;SDS011;53049;43.446;3.698;2023-07-20T12:11:35;5.35;;;3.28;;
66256;SDS011;53049;43.446;3.698;2023-07-20T12:14:02;4.97;;;3.13;;
66256;SDS011;53049;43.446;3.698;2023-07-20T12:16:29;6.88;;;3.20;;
66256;SDS011;53049;43.446;3.698;2023-07-20T12:21:28;5.03;;;3.08;;
66256;SDS011;53049;43.446;3.698;2023-07-20T12:23:56;5.97;;;3.53;;
66256;SDS011;53049;43.446;3.698;2023-07-20T12:26:23;6.68;;;3.67;;
66256;SDS011;53049;43.446;3.698;2023-07-20T12:28:50;5.80;;;3.50;;
66256;SDS011;53049;43.446;3.698;2023-07-20T12:31:16;7.38;;;3.70;;
66256;SDS011;53049;43.446;3.698;2023-07-20T12:33:42;5.70;;;3.20;;
66256;SDS011;53049;43.446;3.698;2023-07-20T12:36:09;8.43;;;3.78;;
66256;SDS011;53049;43.446;3.698;2023-07-20T12:38:35;7.80;;;2.95;;
66256;SDS011;53049;43.446;3.698;2023-07-20T12:41:01;5.72;;;3.20;;
66256;SDS011;53049;43.446;3.698;2023-07-20T12:43:28;7.97;;;3.40;;
66256;SDS011;53049;43.446;3.698;2023-07-20T12:45:54;5.90;;;3.40;;
66256;SDS011;53049;43.446;3.698;2023-07-20T12:48:21;7.35;;;3.08;;
66256;SDS011;53049;43.446;3.698;2023-07-20T12:50:47;6.72;;;2.95;;
66256;SDS011;53049;43.446;3.698;2023-07-20T12:53:13;4.85;;;2.90;;
66256;SDS011;53049;43.446;3.698;2023-07-20T12:55:39;5.10;;;2.90;;
66256;SDS011;53049;43.446;3.698;2023-07-20T12:58:06;8.15;;;3.30;;
66256;SDS011;53049;43.446;3.698;2023-07-20T13:00:33;6.35;;;2.92;;
66256;SDS011;53049;43.446;3.698;2023-07-20T13:02:58;6.25;;;2.88;;
66256;SDS011;53049;43.446;3.698;2023-07-20T13:05:24;5.88;;;3.30;;
66256;SDS011;53049;43.446;3.698;2023-07-20T13:07:50;5.97;;;3.67;;
66256;SDS011;53049;43.446;3.698;2023-07-20T13:10:15;6.75;;;3.30;;
66256;SDS011;53049;43.446;3.698;2023-07-20T13:12:42;5.30;;;3.00;;
66256;SDS011;53049;43.446;3.698;2023-07-20T13:15:08;8.55;;;3.70;;
66256;SDS011;53049;43.446;3.698;2023-07-20T13:17:35;6.53;;;3.60;;
66256;SDS011;53049;43.446;3.698;2023-07-20T13:20:02;8.90;;;3.65;;
66256;SDS011;53049;43.446;3.698;2023-07-20T13:22:29;6.78;;;3.40;;
66256;SDS011;53049;43.446;3.698;2023-07-20T13:24:55;5.80;;;3.28;;
66256;SDS011;53049;43.446;3.698;2023-07-20T13:27:21;8.30;;;3.65;;
66256;SDS011;53049;43.446;3.698;2023-07-20T13:29:47;5.90;;;3.40;;
66256;SDS011;53049;43.446;3.698;2023-07-20T13:32:13;5.18;;;3.10;;
66256;SDS011;53049;43.446;3.698;2023-07-20T13:34:40;5.95;;;3.30;;
66256;SDS011;53049;43.446;3.698;2023-07-20T13:37:06;7.05;;;3.03;;
66256;SDS011;53049;43.446;3.698;2023-07-20T13:39:31;5.80;;;3.00;;
66256;SDS011;53049;43.446;3.698;2023-07-20T13:41:57;7.22;;;3.30;;
66256;SDS011;53049;43.446;3.698;2023-07-20T13:44:23;6.00;;;3.28;;
66256;SDS011;53049;43.446;3.698;2023-07-20T13:46:49;8.10;;;3.15;;
66256;SDS011;53049;43.446;3.698;2023-07-20T13:49:15;4.88;;;3.08;;
66256;SDS011;53049;43.446;3.698;2023-07-20T13:51:41;6.68;;;3.40;;
66256;SDS011;53049;43.446;3.698;2023-07-20T13:54:07;8.15;;;3.40;;
66256;SDS011;53049;43.446;3.698;2023-07-20T13:56:33;6.78;;;2.88;;
66256;SDS011;53049;43.446;3.698;2023-07-20T13:58:58;7.10;;;3.30;;
66256;SDS011;53049;43.446;3.698;2023-07-20T14:01:24;6.35;;;3.38;;
66256;SDS011;53049;43.446;3.698;2023-07-20T14:03:50;8.57;;;3.05;;
66256;SDS011;53049;43.446;3.698;2023-07-20T14:06:16;5.25;;;3.03;;
66256;SDS011;53049;43.446;3.698;2023-07-20T14:08:42;8.90;;;3.10;;
66256;SDS011;53049;43.446;3.698;2023-07-20T14:11:11;12.27;;;3.33;;
66256;SDS011;53049;43.446;3.698;2023-07-20T14:13:37;7.60;;;2.88;;
66256;SDS011;53049;43.446;3.698;2023-07-20T14:16:03;6.50;;;2.78;;
66256;SDS011;53049;43.446;3.698;2023-07-20T14:18:29;4.82;;;2.85;;
66256;SDS011;53049;43.446;3.698;2023-07-20T14:20:55;7.40;;;3.03;;
66256;SDS011;53049;43.446;3.698;2023-07-20T14:23:21;7.90;;;3.05;;
66256;SDS011;53049;43.446;3.698;2023-07-20T14:25:47;5.35;;;3.30;;
66256;SDS011;53049;43.446;3.698;2023-07-20T14:28:13;6.28;;;3.40;;
66256;SDS011;53049;43.446;3.698;2023-07-20T14:30:39;5.47;;;3.13;;
66256;SDS011;53049;43.446;3.698;2023-07-20T14:33:06;6.57;;;3.22;;
66256;SDS011;53049;43.446;3.698;2023-07-20T14:35:32;5.80;;;3.15;;
66256;SDS011;53049;43.446;3.698;2023-07-20T14:37:59;7.28;;;3.50;;
66256;SDS011;53049;43.446;3.698;2023-07-20T14:40:25;6.80;;;3.17;;
66256;SDS011;53049;43.446;3.698;2023-07-20T14:42:50;6.45;;;3.00;;
66256;SDS011;53049;43.446;3.698;2023-07-20T14:45:17;5.95;;;3.78;;
66256;SDS011;53049;43.446;3.698;2023-07-20T14:47:43;6.03;;;3.25;;
66256;SDS011;53049;43.446;3.698;2023-07-20T14:50:10;7.00;;;2.80;;
66256;SDS011;53049;43.446;3.698;2023-07-20T14:52:36;5.28;;;3.35;;
66256;SDS011;53049;43.446;3.698;2023-07-20T14:55:02;6.68;;;3.05;;
66256;SDS011;53049;43.446;3.698;2023-07-20T14:57:27;5.45;;;3.45;;
66256;SDS011;53049;43.446;3.698;2023-07-20T14:59:53;7.18;;;3.30;;
66256;SDS011;53049;43.446;3.698;2023-07-20T15:02:19;9.18;;;3.20;;
66256;SDS011;53049;43.446;3.698;2023-07-20T15:04:45;6.57;;;3.22;;
66256;SDS011;53049;43.446;3.698;2023-07-20T15:07:12;4.68;;;3.03;;
66256;SDS011;53049;43.446;3.698;2023-07-20T15:09:38;9.60;;;3.20;;
66256;SDS011;53049;43.446;3.698;2023-07-20T15:12:04;6.03;;;3.25;;